Time;durP1;ratioP1;P1;durP2;ratioP2;P2;SDS_P1;SDS_P2;PMS_P1;PMS_P2;Temp;Humidity;BMP_temperature;BMP_pressure;BME280_temperature;BME280_humidity;BME280_pressure;Samples;Min_cycle;Max_cycle;Signal;HPM_P1;HPM_P2
2023/05/30 00:01:06;;;;;;;9.45;3.10;;;;;;;11.71;60.58;99590.56;6240678;23;20400;-80
2023/05/30 00:03:35;;;;;;;10.82;2.95;;;;;;;11.95;60.60;99586.75;6242528;22;20012;-80
2023/05/30 00:06:01;;;;;;;10.60;2.70;;;;;;;12.67;59.54;99593.09;6241079;23;20000;-80
2023/05/30 00:08:26;;;;;;;8.27;2.90;;;;;;;13.99;56.00;99582.28;6241434;23;20031;-80
2023/05/30 00:10:52;;;;;;;10.35;3.25;;;;;;;14.46;54.81;99598.66;6216251;23;20436;-80
2023/05/30 00:13:19;;;;;;;12.57;3.22;;;;;;;14.62;54.30;99586.94;6240729;23;20012;-80
2023/05/30 00:15:44;;;;;;;13.93;3.50;;;;;;;14.32;53.97;99598.25;6241778;22;20375;-80
2023/05/30 00:18:11;;;;;;;11.77;3.47;;;;;;;13.29;56.40;99592.97;6241655;22;20004;-80
2023/05/30 00:20:36;;;;;;;8.73;2.95;;;;;;;13.78;56.56;99600.03;6214714;23;20134;-80
2023/05/30 00:23:02;;;;;;;13.95;4.00;;;;;;;14.06;55.11;99599.03;6215522;23;20100;-80
2023/05/30 00:25:27;;;;;;;11.25;3.15;;;;;;;13.74;56.56;99580.13;6215054;23;20012;-80
2023/05/30 00:27:53;;;;;;;22.65;4.00;;;;;;;12.83;57.26;99591.47;6242256;22;20008;-80
2023/05/30 00:30:18;;;;;;;13.18;3.92;;;;;;;11.78;60.52;99585.88;6215840;23;20118;-80
2023/05/30 00:32:44;;;;;;;20.95;4.97;;;;;;;11.56;60.97;99579.53;6241063;23;20455;-80
2023/05/30 00:35:09;;;;;;;13.35;4.05;;;;;;;12.39;59.49;99589.66;6215146;23;20174;-80
2023/05/30 00:37:35;;;;;;;14.55;4.22;;;;;;;11.03;62.73;99597.63;6240454;23;20306;-80
2023/05/30 00:40:00;;;;;;;11.80;3.88;;;;;;;12.03;61.26;99583.69;6240742;23;20016;-80
2023/05/30 00:42:27;;;;;;;19.42;4.32;;;;;;;11.57;61.80;99583.84;6242902;22;20324;-81
2023/05/30 00:44:53;;;;;;;11.45;3.30;;;;;;;10.97;63.30;99590.53;6242537;22;20005;-79
2023/05/30 00:47:18;;;;;;;10.18;4.07;;;;;;;11.55;61.61;99585.94;6243970;22;20000;-79
2023/05/30 00:49:44;;;;;;;12.07;3.28;;;;;;;12.35;60.42;99586.66;6242809;23;20074;-79
2023/05/30 00:52:10;;;;;;;9.80;3.22;;;;;;;12.08;60.62;99590.19;6216284;23;20187;-79
2023/05/30 00:54:39;;;;;;;13.93;3.30;;;;;;;12.28;60.08;99579.84;6243256;23;20067;-79
2023/05/30 00:57:05;;;;;;;15.70;4.68;;;;;;;13.07;57.86;99590.25;6193166;23;20007;-79
2023/05/30 00:59:30;;;;;;;13.43;4.00;;;;;;;12.57;58.60;99594.81;6243096;23;20012;-79
2023/05/30 01:01:56;;;;;;;8.20;2.95;;;;;;;13.53;57.22;99594.38;6241998;22;20009;-79
2023/05/30 01:04:22;;;;;;;10.52;3.65;;;;;;;14.02;55.94;99603.28;6216383;23;20008;-79
2023/05/30 01:06:48;;;;;;;13.15;3.35;;;;;;;14.03;55.84;99594.97;6242776;23;20012;-79
2023/05/30 01:09:14;;;;;;;15.07;3.40;;;;;;;14.09;55.82;99596.63;6240148;23;20034;-79
2023/05/30 01:11:48;;;;;;;8.48;2.80;;;;;;;14.18;55.43;99597.00;6244539;22;20266;-79
2023/05/30 01:14:22;;;;;;;9.68;3.35;;;;;;;14.19;55.58;99604.81;6242197;23;20388;-80
2023/05/30 01:16:55;;;;;;;10.40;3.45;;;;;;;13.64;56.72;99600.66;6243013;23;20007;-80
2023/05/30 01:19:26;;;;;;;8.10;2.70;;;;;;;13.54;56.98;99604.84;6242034;22;20012;-80
2023/05/30 01:22:08;;;;;;;11.30;3.28;;;;;;;13.58;56.81;99607.03;6241853;22;20384;-80
2023/05/30 01:24:45;;;;;;;10.80;3.83;;;;;;;13.39;57.15;99588.56;6243358;22;20004;-80
2023/05/30 01:27:16;;;;;;;;;;;;;;;13.41;56.94;99602.53;6215493;23;20407;-80
2023/05/30 01:29:43;;;;;;;10.63;3.17;;;;;;;12.97;58.35;99600.00;6243633;22;19910;-80
2023/05/30 01:32:09;;;;;;;10.25;3.08;;;;;;;12.44;59.76;99605.81;6240542;23;20434;-80
2023/05/30 01:34:35;;;;;;;16.88;4.85;;;;;;;11.89;61.25;99611.78;6244471;22;20434;-80
2023/05/30 01:37:00;;;;;;;18.23;4.60;;;;;;;11.24;62.49;99615.72;6240993;23;20039;-80
2023/05/30 01:39:26;;;;;;;14.98;4.35;;;;;;;11.20;62.65;99620.72;6215397;23;20015;-79
2023/05/30 01:42:11;;;;;;;18.70;4.82;;;;;;;11.50;62.85;99625.91;6240605;23;20019;-79
2023/05/30 01:45:13;;;;;;;11.35;3.58;;;;;;;11.43;62.55;99624.41;6240508;23;20015;-79
2023/05/30 01:47:52;;;;;;;8.63;2.67;;;;;;;11.89;61.97;99619.00;6239311;23;20081;-80
2023/05/30 01:50:22;;;;;;;14.27;3.92;;;;;;;12.14;60.36;99621.34;6243518;22;20007;-79
2023/05/30 01:52:54;;;;;;;11.25;3.15;;;;;;;12.61;59.49;99615.50;6241171;22;20448;-80
2023/05/30 01:55:24;;;;;;;11.90;3.90;;;;;;;11.93;60.63;99604.91;6240568;23;20321;-80
2023/05/30 01:57:50;;;;;;;10.02;3.40;;;;;;;12.80;58.88;99621.41;6240683;22;20008;-79
2023/05/30 02:00:17;;;;;;;12.25;3.33;;;;;;;12.97;58.16;99618.75;6215902;23;20008;-79
2023/05/30 02:02:43;;;;;;;9.40;3.75;;;;;;;12.96;57.88;99625.97;6239845;23;20010;-79
2023/05/30 02:05:09;;;;;;;15.18;4.35;;;;;;;13.18;57.86;99629.56;6215153;23;20062;-80
2023/05/30 02:07:35;;;;;;;13.68;3.75;;;;;;;13.47;56.85;99616.81;6240823;23;20038;-79
2023/05/30 02:10:00;;;;;;;7.50;3.22;;;;;;;13.53;56.74;99630.06;6244075;22;20004;-81
2023/05/30 02:12:26;;;;;;;16.02;3.35;;;;;;;13.53;56.69;99631.91;6190836;23;20073;-79
2023/05/30 02:14:54;;;;;;;8.57;3.30;;;;;;;13.48;56.73;99629.97;6242077;22;20036;-79
2023/05/30 02:17:22;;;;;;;7.93;3.38;;;;;;;13.32;57.03;99619.31;6239051;23;20318;-79
2023/05/30 02:19:48;;;;;;;18.10;3.85;;;;;;;12.95;57.94;99615.50;6243353;22;20012;-79
2023/05/30 02:22:14;;;;;;;14.70;3.40;;;;;;;12.62;59.64;99627.03;6240714;23;20012;-79
2023/05/30 02:24:39;;;;;;;19.20;4.65;;;;;;;12.22;60.37;99612.91;6241787;23;20004;-79
2023/05/30 02:27:05;;;;;;;12.88;3.50;;;;;;;12.40;59.59;99634.97;6240975;23;20012;-79
2023/05/30 02:29:31;;;;;;;11.48;3.47;;;;;;;12.62;58.65;99621.69;6238088;23;20122;-79
2023/05/30 02:31:56;;;;;;;13.63;3.20;;;;;;;12.70;58.83;99619.41;6241058;23;20428;-80
2023/05/30 02:34:22;;;;;;;8.68;3.50;;;;;;;13.13;57.67;99626.78;6240753;23;20344;-80
2023/05/30 02:36:47;;;;;;;14.52;3.53;;;;;;;13.14;57.66;99628.44;6243084;22;20011;-80
2023/05/30 02:39:12;;;;;;;12.95;3.30;;;;;;;13.18;57.57;99631.41;6240714;23;20010;-80
2023/05/30 02:41:38;;;;;;;10.73;3.40;;;;;;;12.81;58.72;99628.41;6242690;22;20333;-80
2023/05/30 02:44:04;;;;;;;10.88;3.83;;;;;;;13.19;57.69;99628.50;6240545;23;20429;-80
2023/05/30 02:46:29;;;;;;;13.55;3.58;;;;;;;13.22;57.59;99628.00;6241660;22;20008;-80
2023/05/30 02:48:55;;;;;;;11.52;3.78;;;;;;;13.10;57.78;99631.84;6239989;23;20012;-80
2023/05/30 02:51:20;;;;;;;8.50;3.20;;;;;;;13.08;58.21;99628.59;6239658;23;20015;-80
2023/05/30 02:53:46;;;;;;;9.98;3.42;;;;;;;13.09;57.88;99624.84;6240916;23;20058;-80
2023/05/30 02:56:11;;;;;;;7.72;2.95;;;;;;;12.89;58.56;99630.69;6214938;23;20091;-80
2023/05/30 02:58:36;;;;;;;11.65;3.38;;;;;;;12.81;58.68;99641.81;6238698;23;20018;-80
2023/05/30 03:01:02;;;;;;;15.90;4.78;;;;;;;11.43;62.88;99635.09;6238649;23;20375;-80
2023/05/30 03:03:28;;;;;;;11.40;4.70;;;;;;;11.42;63.08;99634.31;6214770;23;20015;-80
2023/05/30 03:05:53;;;;;;;6.68;3.58;;;;;;;11.05;64.17;99632.94;6235304;23;20084;-80
2023/05/30 03:08:19;;;;;;;17.25;5.63;;;;;;;10.46;66.34;99633.91;6238809;22;20011;-79
2023/05/30 03:10:44;;;;;;;14.15;3.35;;;;;;;11.35;63.03;99630.13;6236747;23;20375;-80
2023/05/30 03:13:10;;;;;;;8.38;3.55;;;;;;;12.17;60.64;99644.94;6236402;23;20019;-80
2023/05/30 03:15:35;;;;;;;10.80;3.22;;;;;;;12.60;59.55;99651.34;6236442;23;20069;-80
2023/05/30 03:18:01;;;;;;;15.70;3.97;;;;;;;12.96;58.54;99654.63;6237946;22;20016;-80
2023/05/30 03:20:28;;;;;;;10.73;3.85;;;;;;;12.83;58.29;99639.69;6240213;23;20086;-80
2023/05/30 03:22:53;;;;;;;9.40;3.70;;;;;;;12.88;58.55;99641.66;6242553;22;20004;-80
2023/05/30 03:25:19;;;;;;;14.05;3.60;;;;;;;12.72;59.13;99649.44;6240298;23;20338;-80
2023/05/30 03:27:50;;;;;;;17.10;4.57;;;;;;;11.72;62.72;99650.22;6240378;23;20012;-79
2023/05/30 03:30:15;;;;;;;10.13;3.10;;;;;;;12.11;61.62;99667.31;6239629;23;20452;-79
2023/05/30 03:32:41;;;;;;;9.93;3.08;;;;;;;12.09;61.19;99661.38;6239807;23;20016;-79
2023/05/30 03:35:07;;;;;;;13.95;4.65;;;;;;;11.92;62.15;99654.13;6238026;23;20008;-79
2023/05/30 03:37:32;;;;;;;20.60;4.55;;;;;;;11.92;62.14;99648.78;6214890;23;20070;-79
2023/05/30 03:39:58;;;;;;;13.10;3.67;;;;;;;12.03;62.16;99658.59;6240542;23;20061;-79
2023/05/30 03:42:23;;;;;;;15.88;4.15;;;;;;;12.18;60.86;99649.25;6241838;23;20011;-79
2023/05/30 03:44:48;;;;;;;9.35;3.47;;;;;;;12.06;61.71;99665.34;6240926;23;20427;-79
2023/05/30 03:47:14;;;;;;;16.30;4.10;;;;;;;11.98;61.94;99663.88;6215946;23;20313;-79
2023/05/30 03:49:39;;;;;;;17.52;4.03;;;;;;;12.42;60.54;99662.31;6239947;23;20103;-79
2023/05/30 03:52:04;;;;;;;15.30;3.80;;;;;;;12.70;59.84;99666.81;6240446;23;20008;-79
2023/05/30 03:54:30;;;;;;;10.73;3.63;;;;;;;12.80;59.49;99664.28;6240050;23;20062;-79
2023/05/30 03:56:55;;;;;;;12.43;3.67;;;;;;;12.76;59.72;99655.13;6240565;23;20019;-80
2023/05/30 03:59:21;;;;;;;9.95;3.90;;;;;;;12.50;60.54;99655.72;6242295;22;20087;-79
2023/05/30 04:01:46;;;;;;;14.77;3.65;;;;;;;12.54;60.23;99656.88;6242797;23;20004;-79
2023/05/30 04:04:12;;;;;;;19.35;5.53;;;;;;;12.26;62.84;99660.38;6214057;23;20049;-79
2023/05/30 04:06:37;;;;;;;14.13;4.80;;;;;;;11.74;65.17;99675.66;6214221;23;20016;-79
2023/05/30 04:09:03;;;;;;;19.13;4.88;;;;;;;11.88;63.80;99682.38;6214333;23;20008;-79
2023/05/30 04:11:30;;;;;;;18.13;4.78;;;;;;;11.24;66.74;99680.69;6239971;23;20011;-80
2023/05/30 04:13:55;;;;;;;15.38;4.68;;;;;;;10.48;69.48;99663.84;6241285;23;20093;-80
2023/05/30 04:16:20;;;;;;;21.63;4.55;;;;;;;11.18;68.09;99688.81;6236846;23;20008;-79
2023/05/30 04:18:47;;;;;;;19.38;5.20;;;;;;;10.80;69.28;99681.22;6239089;23;20008;-79
2023/05/30 04:21:13;;;;;;;10.70;4.57;;;;;;;10.81;68.63;99674.00;6240968;23;20424;-79
2023/05/30 04:23:40;;;;;;;19.77;6.03;;;;;;;10.65;70.50;99680.00;6243403;23;20004;-79
2023/05/30 04:26:06;;;;;;;15.90;5.32;;;;;;;10.37;71.80;99665.44;6243729;23;20103;-79
2023/05/30 04:28:32;;;;;;;21.92;6.85;;;;;;;10.89;69.89;99665.66;6242138;23;20004;-80
2023/05/30 04:30:58;;;;;;;22.45;4.95;;;;;;;10.90;70.15;99657.41;6215260;23;20016;-80
2023/05/30 04:33:24;;;;;;;20.45;5.65;;;;;;;10.50;72.09;99677.78;6217493;23;20118;-78
2023/05/30 04:35:50;;;;;;;22.38;5.15;;;;;;;11.00;70.43;99675.53;6216852;23;20004;-78
2023/05/30 04:38:20;;;;;;;20.92;5.50;;;;;;;10.78;71.17;99674.47;6242597;23;20079;-78
2023/05/30 04:40:50;;;;;;;23.63;5.40;;;;;;;11.37;68.38;99673.47;6243522;23;20468;-78
2023/05/30 04:43:19;;;;;;;24.20;6.75;;;;;;;11.11;69.38;99674.75;6217137;23;20008;-78
2023/05/30 04:45:47;;;;;;;24.88;5.40;;;;;;;10.89;70.31;99679.00;6239198;23;20343;-79
2023/05/30 04:48:15;;;;;;;13.52;5.65;;;;;;;11.05;70.16;99665.78;6240410;22;20335;-79
2023/05/30 04:50:41;;;;;;;25.00;5.18;;;;;;;10.87;69.83;99663.22;6244148;22;20069;-80
2023/05/30 04:53:06;;;;;;;23.92;6.75;;;;;;;11.26;69.11;99673.25;6242573;23;20004;-79
2023/05/30 04:55:31;;;;;;;28.65;6.75;;;;;;;11.13;70.68;99683.34;6241730;22;20044;-79
2023/05/30 04:57:57;;;;;;;24.65;5.85;;;;;;;10.77;71.44;99687.00;6243389;22;20011;-82
2023/05/30 05:00:22;;;;;;;24.10;6.55;;;;;;;10.36;74.54;99679.81;6244915;22;20462;-79
2023/05/30 05:02:48;;;;;;;22.20;7.57;;;;;;;10.38;74.05;99680.38;6242977;23;20010;-79
2023/05/30 05:05:13;;;;;;;30.00;9.23;;;;;;;9.41;78.55;99674.38;6213364;23;20056;-79
2023/05/30 05:07:39;;;;;;;40.90;12.50;;;;;;;9.20;79.10;99682.75;6240613;23;20000;-78
2023/05/30 05:10:05;;;;;;;35.90;9.68;;;;;;;9.40;79.48;99694.88;6240742;23;20013;-79
2023/05/30 05:12:31;;;;;;;22.10;8.20;;;;;;;9.82;77.83;99695.84;6240893;23;20007;-79
2023/05/30 05:14:57;;;;;;;25.13;9.13;;;;;;;10.38;74.32;99693.72;6216444;23;20008;-80
2023/05/30 05:17:23;;;;;;;22.05;8.23;;;;;;;10.62;73.40;99704.47;6244497;23;20015;-79
2023/05/30 05:19:48;;;;;;;27.45;9.15;;;;;;;11.02;71.65;99711.69;6241455;23;20031;-79
2023/05/30 05:22:14;;;;;;;25.50;9.80;;;;;;;11.32;70.70;99707.06;6240319;23;20011;-79
2023/05/30 05:24:39;;;;;;;27.20;10.38;;;;;;;10.61;73.87;99710.88;6214058;23;20004;-79
2023/05/30 05:27:05;;;;;;;26.73;8.52;;;;;;;10.48;75.07;99701.19;6242394;22;20016;-79
2023/05/30 05:29:32;;;;;;;31.98;10.85;;;;;;;10.69;75.29;99700.69;6191520;23;20032;-79
2023/05/30 05:31:57;;;;;;;24.77;9.82;;;;;;;11.48;70.81;99702.06;6214555;23;20004;-79
2023/05/30 05:34:22;;;;;;;33.42;10.57;;;;;;;10.64;74.58;99707.75;6214590;23;20016;-79
2023/05/30 05:36:48;;;;;;;28.10;9.93;;;;;;;10.98;73.55;99707.03;6242065;23;20099;-79
2023/05/30 05:39:14;;;;;;;24.92;8.70;;;;;;;11.37;72.20;99711.72;6238625;23;20012;-79
2023/05/30 05:41:39;;;;;;;22.23;9.68;;;;;;;10.83;74.59;99704.78;6242335;23;20386;-79
2023/05/30 05:44:04;;;;;;;26.20;10.38;;;;;;;10.16;77.23;99705.94;6215931;23;20020;-79
2023/05/30 05:46:30;;;;;;;33.88;11.75;;;;;;;10.43;76.86;99707.22;6239727;23;20019;-79
2023/05/30 05:48:56;;;;;;;27.75;10.23;;;;;;;10.01;77.83;99712.66;6242480;22;20087;-80
2023/05/30 05:51:21;;;;;;;25.35;10.52;;;;;;;10.57;76.00;99705.97;6243372;22;20440;-79
2023/05/30 05:53:47;;;;;;;30.77;11.60;;;;;;;10.45;76.54;99702.47;6241943;22;20004;-79
2023/05/30 05:56:12;;;;;;;29.33;11.43;;;;;;;10.94;75.19;99712.00;6241202;22;20344;-79
2023/05/30 05:58:38;;;;;;;31.15;12.05;;;;;;;10.95;74.99;99712.81;6240531;22;20388;-79
2023/05/30 06:01:04;;;;;;;28.48;11.45;;;;;;;10.30;78.26;99718.06;6207209;23;20398;-80
2023/05/30 06:03:30;;;;;;;27.13;11.52;;;;;;;10.49;78.23;99713.50;6237191;22;20027;-79
2023/05/30 06:05:55;;;;;;;36.90;11.32;;;;;;;10.69;77.33;99713.22;6238185;22;20388;-79
2023/05/30 06:08:21;;;;;;;28.27;11.90;;;;;;;10.69;76.19;99715.88;6240956;22;20059;-79
2023/05/30 06:10:46;;;;;;;29.27;11.35;;;;;;;10.41;78.25;99721.81;6242878;22;20008;-79
2023/05/30 06:13:11;;;;;;;28.42;11.00;;;;;;;10.69;76.43;99710.53;6242121;22;20063;-79
2023/05/30 06:15:37;;;;;;;26.85;10.45;;;;;;;11.37;74.11;99717.06;6236316;23;20008;-79
2023/05/30 06:18:03;;;;;;;32.45;12.40;;;;;;;10.82;76.26;99716.50;6238886;23;20008;-79
2023/05/30 06:20:28;;;;;;;37.25;13.30;;;;;;;11.26;74.77;99729.38;6239584;23;20003;-78
2023/05/30 06:22:54;;;;;;;36.83;11.88;;;;;;;11.03;74.99;99715.97;6212548;23;20012;-79
2023/05/30 06:25:19;;;;;;;30.67;10.68;;;;;;;11.15;75.28;99724.00;6240399;22;20008;-79
2023/05/30 06:27:44;;;;;;;30.50;10.80;;;;;;;10.95;76.74;99721.66;6214805;23;20016;-79
2023/05/30 06:30:10;;;;;;;29.95;11.82;;;;;;;10.75;76.68;99722.97;6213229;23;20015;-79
2023/05/30 06:32:35;;;;;;;29.85;10.48;;;;;;;10.92;76.06;99703.41;6237514;23;20019;-79
2023/05/30 06:35:01;;;;;;;33.10;11.88;;;;;;;11.57;75.18;99714.03;6241455;22;20340;-79
2023/05/30 06:37:26;;;;;;;23.60;9.73;;;;;;;12.13;72.85;99724.06;6214156;23;20345;-78
2023/05/30 06:39:51;;;;;;;26.38;10.30;;;;;;;11.93;73.28;99722.63;6213127;23;20925;-78
2023/05/30 06:42:17;;;;;;;31.63;10.63;;;;;;;11.37;74.73;99725.06;6236684;23;20004;-78
2023/05/30 06:44:42;;;;;;;36.97;11.57;;;;;;;11.63;73.99;99723.78;6240100;23;20428;-79
2023/05/30 06:47:08;;;;;;;30.17;10.35;;;;;;;12.12;72.46;99719.78;6238173;22;20015;-79
2023/05/30 06:49:33;;;;;;;28.65;10.95;;;;;;;11.91;73.47;99732.75;6210046;23;20007;-78
2023/05/30 06:51:59;;;;;;;33.15;11.10;;;;;;;11.42;73.55;99730.53;6234403;23;20018;-79
2023/05/30 06:54:25;;;;;;;31.27;10.80;;;;;;;11.21;74.19;99723.06;6241572;22;20765;-78
2023/05/30 06:56:50;;;;;;;35.50;11.05;;;;;;;11.21;75.14;99739.09;6241058;22;20106;-79
2023/05/30 06:59:16;;;;;;;29.92;12.48;;;;;;;10.90;76.15;99721.50;6240265;23;20036;-79
2023/05/30 07:01:41;;;;;;;30.05;11.85;;;;;;;10.96;77.97;99727.81;6232273;23;20115;-80
2023/05/30 07:04:07;;;;;;;23.65;11.50;;;;;;;11.73;74.84;99727.53;6211426;23;20074;-78
2023/05/30 07:06:32;;;;;;;38.50;11.68;;;;;;;11.45;75.40;99730.06;6240096;22;20769;-78
2023/05/30 07:08:58;;;;;;;32.47;11.15;;;;;;;11.72;74.10;99743.81;6239835;23;20089;-79
2023/05/30 07:11:23;;;;;;;30.02;11.05;;;;;;;11.54;75.62;99739.38;6238846;22;20019;-79
2023/05/30 07:13:48;;;;;;;27.15;10.80;;;;;;;12.48;72.02;99738.16;6240673;23;20079;-79
2023/05/30 07:16:14;;;;;;;39.08;12.13;;;;;;;11.74;74.57;99739.03;6242174;22;20008;-79
2023/05/30 07:18:40;;;;;;;23.95;9.52;;;;;;;12.58;71.60;99739.16;6242015;23;20347;-79
2023/05/30 07:21:07;;;;;;;28.70;10.13;;;;;;;11.68;75.49;99735.44;6241006;22;20019;-80
2023/05/30 07:23:34;;;;;;;40.83;11.40;;;;;;;12.14;73.82;99741.78;6215924;23;20018;-79
2023/05/30 07:25:59;;;;;;;27.88;11.75;;;;;;;11.60;75.42;99753.69;6235484;22;20008;-79
2023/05/30 07:28:24;;;;;;;31.55;11.40;;;;;;;11.57;75.22;99749.59;6241620;22;20391;-79
2023/05/30 07:30:50;;;;;;;28.75;11.05;;;;;;;11.53;76.05;99747.63;6242321;22;20534;-80
2023/05/30 07:33:15;;;;;;;26.58;9.80;;;;;;;12.12;74.91;99735.84;6238254;23;20061;-81
2023/05/30 07:35:41;;;;;;;24.27;11.40;;;;;;;11.75;75.92;99738.78;6215732;23;20432;-81
2023/05/30 07:38:06;;;;;;;31.30;11.48;;;;;;;12.02;74.65;99742.59;6214224;23;20019;-82
2023/05/30 07:40:32;;;;;;;25.88;12.07;;;;;;;11.30;76.41;99746.56;6215347;23;20031;-81
2023/05/30 07:42:57;;;;;;;25.95;10.55;;;;;;;11.50;77.07;99732.84;6242460;23;20004;-81
2023/05/30 07:45:22;;;;;;;29.90;10.77;;;;;;;11.32;77.73;99735.63;6212324;23;20012;-80
2023/05/30 07:47:48;;;;;;;24.52;9.35;;;;;;;12.28;74.73;99740.44;6235065;23;20004;-82
2023/05/30 07:50:13;;;;;;;35.88;11.68;;;;;;;12.12;75.08;99742.03;6213314;23;20015;-81
2023/05/30 07:52:39;;;;;;;35.00;10.30;;;;;;;12.23;76.18;99741.16;6211839;23;20018;-81
2023/05/30 07:55:04;;;;;;;19.05;10.13;;;;;;;11.64;76.33;99738.78;6239240;23;20091;-80
2023/05/30 07:57:31;;;;;;;30.45;10.50;;;;;;;11.92;76.13;99744.25;6238783;22;20384;-80
2023/05/30 07:59:57;;;;;;;27.45;10.25;;;;;;;11.36;76.23;99742.13;6237933;23;20008;-80
2023/05/30 08:02:25;;;;;;;27.30;9.40;;;;;;;12.70;73.29;99731.91;6239336;23;20004;-80
2023/05/30 08:04:53;;;;;;;28.95;10.57;;;;;;;12.60;73.50;99723.66;6237570;23;20012;-80
2023/05/30 08:07:19;;;;;;;24.50;8.93;;;;;;;13.06;71.35;99721.84;6237223;23;20012;-80
2023/05/30 08:09:45;;;;;;;28.95;10.55;;;;;;;11.89;74.09;99728.66;6215598;23;20012;-80
2023/05/30 08:12:18;;;;;;;23.25;10.43;;;;;;;12.10;74.03;99743.31;6243349;22;20440;-80
2023/05/30 08:14:43;;;;;;;23.38;9.45;;;;;;;11.73;75.36;99740.88;6239728;23;20014;-80
2023/05/30 08:17:11;;;;;;;23.17;7.70;;;;;;;12.66;73.54;99727.28;6240122;23;20448;-80
2023/05/30 08:19:36;;;;;;;25.98;10.18;;;;;;;12.51;73.45;99738.53;6240220;23;20452;-81
2023/05/30 08:22:03;;;;;;;23.50;9.90;;;;;;;12.71;73.30;99741.56;6239163;23;20008;-81
2023/05/30 08:24:29;;;;;;;24.83;8.40;;;;;;;13.68;70.38;99733.25;6213358;23;20416;-80
2023/05/30 08:26:54;;;;;;;26.42;9.73;;;;;;;14.06;68.78;99738.63;6240565;22;20008;-81
2023/05/30 08:29:19;;;;;;;24.13;9.27;;;;;;;12.92;70.49;99736.56;6241752;22;20579;-81
2023/05/30 08:31:45;;;;;;;23.23;8.63;;;;;;;12.93;72.15;99736.31;6240435;23;20336;-81
2023/05/30 08:34:10;;;;;;;18.65;8.23;;;;;;;13.04;71.51;99735.44;6243348;23;20035;-80
2023/05/30 08:36:36;;;;;;;22.67;9.07;;;;;;;13.74;69.13;99734.97;6241775;22;20436;-80
2023/05/30 08:39:02;;;;;;;26.63;9.73;;;;;;;13.31;69.89;99728.41;6239999;23;20491;-80
2023/05/30 08:41:27;;;;;;;27.10;9.98;;;;;;;12.93;70.10;99736.31;6215642;23;20031;-80
2023/05/30 08:43:53;;;;;;;25.10;11.82;;;;;;;12.87;71.36;99734.59;6183938;23;20011;-80
2023/05/30 08:46:19;;;;;;;17.15;7.72;;;;;;;13.54;70.94;99727.44;6211202;23;20082;-80
2023/05/30 08:48:45;;;;;;;22.98;9.10;;;;;;;13.23;70.27;99722.66;6238385;23;20011;-80
2023/05/30 08:51:13;;;;;;;22.90;9.43;;;;;;;13.00;71.41;99733.47;6212045;23;20020;-80
2023/05/30 08:53:45;;;;;;;30.02;9.20;;;;;;;13.06;70.19;99717.28;6238548;23;20016;-81
2023/05/30 08:56:23;;;;;;;23.85;9.98;;;;;;;13.41;69.24;99730.47;6240256;22;20011;-82
2023/05/30 08:58:51;;;;;;;18.75;8.65;;;;;;;13.70;69.65;99729.25;6240681;22;20008;-79
2023/05/30 09:01:17;;;;;;;25.13;9.20;;;;;;;13.94;69.63;99727.16;6239068;23;20020;-82
2023/05/30 09:03:44;;;;;;;27.58;9.13;;;;;;;13.21;69.22;99728.28;6241048;23;20065;-81
2023/05/30 09:06:12;;;;;;;24.05;8.82;;;;;;;13.02;71.41;99737.53;6241997;22;20456;-80
2023/05/30 09:08:41;;;;;;;24.83;9.70;;;;;;;14.10;68.09;99724.44;6242409;23;20008;-82
2023/05/30 09:11:07;;;;;;;21.73;8.55;;;;;;;13.77;67.97;99739.81;6243790;22;20011;-82
2023/05/30 09:13:34;;;;;;;21.85;9.30;;;;;;;13.18;69.77;99726.06;6243181;23;20036;-82
2023/05/30 09:16:00;;;;;;;18.17;7.40;;;;;;;14.15;69.14;99727.16;6241701;23;20004;-81
2023/05/30 09:18:29;;;;;;;30.05;8.15;;;;;;;14.37;66.29;99732.59;6241882;23;20015;-81
2023/05/30 09:20:56;;;;;;;20.00;9.05;;;;;;;13.84;68.58;99713.63;6244149;22;20031;-81
2023/05/30 09:23:21;;;;;;;22.63;8.93;;;;;;;13.75;67.91;99740.06;6243674;23;20058;-82
2023/05/30 09:25:48;;;;;;;25.52;8.77;;;;;;;13.83;69.23;99717.34;6245778;22;20012;-82
2023/05/30 09:28:14;;;;;;;22.35;8.68;;;;;;;13.51;68.73;99711.81;6242757;23;20412;-81
2023/05/30 09:30:59;;;;;;;18.73;8.75;;;;;;;13.89;68.31;99730.59;6216413;23;20158;-81
2023/05/30 09:33:39;;;;;;;20.65;8.38;;;;;;;13.76;67.93;99743.56;6243388;22;20027;-81
2023/05/30 09:36:05;;;;;;;21.92;8.63;;;;;;;14.14;68.45;99740.84;6268274;22;20070;-81
2023/05/30 09:38:30;;;;;;;27.15;8.55;;;;;;;14.36;67.58;99733.63;6242320;23;20087;-81
2023/05/30 09:41:00;;;;;;;24.85;8.07;;;;;;;14.89;63.63;99741.75;6243331;23;20008;-81
2023/05/30 09:43:30;;;;;;;18.90;8.68;;;;;;;13.87;66.19;99737.28;6242968;23;20016;-81
2023/05/30 09:45:56;;;;;;;20.38;8.02;;;;;;;14.91;64.54;99723.47;6242008;23;20726;-82
2023/05/30 09:48:21;;;;;;;24.55;7.18;;;;;;;15.04;64.59;99733.00;6213140;23;20012;-81
2023/05/30 09:50:51;;;;;;;15.30;7.43;;;;;;;14.57;62.95;99734.69;6242701;22;20006;-81
2023/05/30 09:53:17;;;;;;;15.85;7.20;;;;;;;15.61;63.18;99723.25;6241247;22;20007;-81
2023/05/30 09:55:42;;;;;;;17.20;6.60;;;;;;;15.84;61.22;99723.91;6241160;23;20004;-81
2023/05/30 09:58:17;;;;;;;14.88;6.90;;;;;;;15.69;61.79;99730.03;6241182;23;20008;-81
2023/05/30 10:00:52;;;;;;;20.27;7.00;;;;;;;14.70;62.72;99723.53;6240037;22;20047;-81
2023/05/30 10:03:19;;;;;;;19.33;6.57;;;;;;;15.73;61.66;99728.41;6241358;23;20012;-81
2023/05/30 10:05:45;;;;;;;19.65;7.57;;;;;;;14.61;62.04;99719.69;6239713;23;20011;-81
2023/05/30 10:08:11;;;;;;;16.35;7.22;;;;;;;15.67;61.58;99732.16;6239213;23;19996;-80
2023/05/30 10:10:39;;;;;;;15.43;7.20;;;;;;;15.27;60.88;99729.97;6241749;23;20008;-81
2023/05/30 10:13:05;;;;;;;16.10;7.18;;;;;;;15.46;61.17;99733.09;6243298;22;20011;-81
2023/05/30 10:15:30;;;;;;;17.50;6.65;;;;;;;15.63;60.70;99733.75;6241485;22;20008;-81
2023/05/30 10:18:05;;;;;;;11.10;6.20;;;;;;;16.62;60.01;99729.09;6239522;22;20008;-81
2023/05/30 10:20:31;;;;;;;12.75;6.93;;;;;;;15.80;59.82;99739.78;6242691;22;20008;-80
2023/05/30 10:22:59;;;;;;;13.75;6.97;;;;;;;15.23;59.94;99722.66;6241613;23;20008;-81
2023/05/30 10:25:28;;;;;;;14.20;6.25;;;;;;;16.14;61.07;99729.47;6242646;22;20004;-81
2023/05/30 10:27:56;;;;;;;21.48;6.57;;;;;;;15.57;57.86;99724.03;6236891;22;20454;-80
2023/05/30 10:30:23;;;;;;;12.63;5.22;;;;;;;15.66;60.56;99722.47;6239885;22;20363;-81
2023/05/30 10:32:58;;;;;;;16.83;6.28;;;;;;;15.62;59.33;99706.03;6241108;23;20003;-81
2023/05/30 10:35:25;;;;;;;14.17;6.07;;;;;;;15.26;59.31;99704.16;6244125;23;20050;-81
2023/05/30 10:37:52;;;;;;;15.30;6.20;;;;;;;15.27;58.92;99707.63;6216160;23;20091;-81
2023/05/30 10:40:20;;;;;;;16.10;5.55;;;;;;;15.43;58.29;99720.97;6239644;23;20008;-80
2023/05/30 10:42:55;;;;;;;11.80;5.55;;;;;;;15.26;58.14;99706.84;6241223;22;20347;-81
2023/05/30 10:45:31;;;;;;;15.23;5.75;;;;;;;15.59;56.50;99719.19;6236917;23;20008;-81
2023/05/30 10:48:25;;;;;;;12.30;5.45;;;;;;;15.89;58.13;99721.25;6242425;23;20077;-80
2023/05/30 10:50:56;;;;;;;11.30;4.88;;;;;;;16.62;57.62;99721.00;6242145;23;20055;-80
2023/05/30 10:53:22;;;;;;;11.77;5.05;;;;;;;17.45;55.95;99719.72;6244014;22;20008;-80
2023/05/30 10:55:49;;;;;;;12.18;5.20;;;;;;;17.82;54.64;99714.81;6243252;22;20031;-81
2023/05/30 10:58:47;;;;;;;16.83;5.65;;;;;;;17.43;56.72;99702.19;6242944;22;20333;-81
2023/05/30 11:01:26;;;;;;;15.52;5.90;;;;;;;16.80;57.42;99703.53;6165986;23;20436;-81
2023/05/30 11:04:06;;;;;;;13.38;5.07;;;;;;;17.53;55.50;99700.31;6241696;23;20008;-80
2023/05/30 11:06:38;;;;;;;23.67;6.50;;;;;;;17.24;54.78;99680.34;6242647;22;20027;-80
2023/05/30 11:09:08;;;;;;;13.45;6.20;;;;;;;16.99;56.44;99689.25;6243027;22;20004;-81
2023/05/30 11:11:40;;;;;;;16.55;5.95;;;;;;;18.43;54.18;99693.78;6216310;23;20054;-80
2023/05/30 11:14:06;;;;;;;15.55;6.00;;;;;;;17.53;54.22;99689.50;6242019;23;20019;-81
2023/05/30 11:16:46;;;;;;;19.48;6.60;;;;;;;18.89;53.17;99682.69;6263627;22;20184;-80
2023/05/30 11:19:12;;;;;;;17.40;5.13;;;;;;;17.23;55.16;99684.91;6240597;23;20016;-82
2023/05/30 11:21:53;;;;;;;12.43;5.70;;;;;;;17.71;54.91;99685.44;6243021;22;20573;-82
2023/05/30 11:24:20;;;;;;;10.57;5.10;;;;;;;17.25;54.14;99698.94;6216424;23;20015;-82